createdAt,value
2018-08-22T00:00:43.014Z,98287.26
2018-08-22T00:03:13.095Z,98287.14
2018-08-22T00:05:46.779Z,98289.11
2018-08-22T00:11:34.146Z,98285.22
2018-08-22T00:14:04.879Z,98285.00
2018-08-22T00:16:39.927Z,98287.14
2018-08-22T00:19:10.140Z,98286.94
2018-08-22T00:21:42.220Z,98279.14
2018-08-22T00:27:09.094Z,98277.33
2018-08-22T00:29:41.028Z,98280.09
2018-08-22T00:32:11.209Z,98270.87
2018-08-22T00:34:41.024Z,98270.16
2018-08-22T00:37:12.954Z,98266.47
2018-08-22T00:39:42.841Z,98266.47
2018-08-22T00:42:13.534Z,98265.56
2018-08-22T00:44:43.250Z,98275.20
2018-08-22T00:47:13.387Z,98265.92
2018-08-22T00:49:43.059Z,98254.27
2018-08-22T00:52:13.910Z,98264.04
2018-08-22T00:54:43.455Z,98262.23
2018-08-22T00:57:13.168Z,98259.51
2018-08-22T00:59:42.818Z,98267.76
2018-08-22T01:02:12.770Z,98264.55
2018-08-22T01:04:42.396Z,98262.00
2018-08-22T01:07:13.300Z,98258.11
2018-08-22T01:09:47.435Z,98262.64
2018-08-22T01:12:17.570Z,98266.23
2018-08-22T01:14:47.636Z,98259.97
2018-08-22T01:17:17.282Z,98263.47
2018-08-22T01:19:46.801Z,98262.14
2018-08-22T01:22:16.564Z,98261.23
2018-08-22T01:24:48.835Z,98256.09
2018-08-22T01:27:21.415Z,98261.03
2018-08-22T01:29:52.810Z,98257.52
2018-08-22T01:32:22.990Z,98247.64
2018-08-22T01:34:53.216Z,98256.36
2018-08-22T01:37:46.485Z,98255.97
2018-08-22T01:40:16.168Z,98248.78
2018-08-22T01:42:45.822Z,98246.21
2018-08-22T01:45:15.423Z,98248.94
2018-08-22T01:47:45.614Z,98245.16
2018-08-22T01:53:25.169Z,98244.81
2018-08-22T01:55:56.437Z,98241.55
2018-08-22T02:04:54.157Z,98240.67
2018-08-22T02:07:24.273Z,98242.19
2018-08-22T02:41:05.162Z,98235.69
2018-08-22T02:43:35.256Z,98235.45
2018-08-22T02:46:06.819Z,98235.56
2018-08-22T02:48:46.473Z,98231.88
2018-08-22T02:51:16.603Z,98232.08
2018-08-22T02:53:46.758Z,98227.09
2018-08-22T03:00:00.910Z,98228.69
2018-08-22T03:02:30.601Z,98232.24
2018-08-22T03:05:01.425Z,98225.55
2018-08-22T03:07:32.361Z,98230.14
2018-08-22T03:10:03.194Z,98229.19
2018-08-22T03:12:33.072Z,98231.73
2018-08-22T03:15:02.620Z,98227.71
2018-08-22T03:17:32.334Z,98230.39
2018-08-22T03:20:02.031Z,98233.61
2018-08-22T03:22:31.874Z,98227.98
2018-08-22T03:25:01.460Z,98235.20
2018-08-22T03:27:31.171Z,98235.35
2018-08-22T03:30:01.259Z,98238.00
2018-08-22T03:32:30.780Z,98232.70
2018-08-22T03:35:00.391Z,98228.73
2018-08-22T03:37:30.941Z,98231.08
2018-08-22T03:40:00.566Z,98237.60
2018-08-22T03:42:44.604Z,98235.80
2018-08-22T03:45:14.325Z,98234.05
2018-08-22T03:47:54.040Z,98232.94
2018-08-22T03:53:16.397Z,98235.59
2018-08-22T03:55:55.490Z,98234.95
2018-08-22T04:15:07.833Z,98256.64
2018-08-22T04:17:40.751Z,98246.49
2018-08-22T04:20:12.439Z,98244.59
2018-08-22T04:22:42.917Z,98244.86
2018-08-22T04:25:50.965Z,98244.43
2018-08-22T04:28:21.599Z,98252.27
2018-08-22T04:30:51.683Z,98249.72
2018-08-22T04:33:23.807Z,98251.41
2018-08-22T04:35:53.780Z,98254.64
2018-08-22T04:38:25.280Z,98255.37
2018-08-22T04:40:55.335Z,98257.48
2018-08-22T04:43:25.061Z,98261.62
2018-08-22T04:46:07.311Z,98263.83
2018-08-22T04:48:37.834Z,98270.22
2018-08-22T04:51:08.062Z,98269.12
2018-08-22T04:53:39.407Z,98269.74
2018-08-22T04:56:09.410Z,98268.31
2018-08-22T04:58:40.618Z,98262.72
2018-08-22T05:01:23.377Z,98269.33
2018-08-22T05:03:53.669Z,98266.32
2018-08-22T05:06:26.357Z,98270.07
2018-08-22T05:08:57.178Z,98269.48
2018-08-22T05:11:27.185Z,98275.94
2018-08-22T05:17:15.714Z,98264.00
2018-08-22T05:19:53.569Z,98268.18
2018-08-22T05:22:29.255Z,98272.25
2018-08-22T05:25:06.064Z,98270.52
2018-08-22T05:27:38.382Z,98269.50
2018-08-22T05:30:08.332Z,98271.50
2018-08-22T05:42:38.231Z,98270.53
2018-08-22T05:45:18.124Z,98268.24
2018-08-22T05:47:48.955Z,98262.13
2018-08-22T05:50:19.219Z,98266.73
2018-08-22T05:52:49.874Z,98261.13
2018-08-22T05:55:20.050Z,98272.22
2018-08-22T05:57:50.663Z,98273.08
2018-08-22T06:00:20.420Z,98272.94
2018-08-22T06:02:50.198Z,98271.62
2018-08-22T06:05:20.154Z,98272.10
2018-08-22T06:07:50.317Z,98271.59
2018-08-22T06:10:20.920Z,98268.65
2018-08-22T06:12:55.229Z,98281.05
2018-08-22T06:15:25.540Z,98275.33
2018-08-22T06:22:46.513Z,98279.73
2018-08-22T06:25:20.507Z,98290.73
2018-08-22T06:27:50.668Z,98288.91
2018-08-22T06:30:20.331Z,98287.09
2018-08-22T06:32:51.134Z,98282.75
2018-08-22T06:35:24.266Z,98280.37
2018-08-22T06:37:58.663Z,98286.13
2018-08-22T06:40:30.336Z,98290.94
2018-08-22T06:43:00.866Z,98286.23
2018-08-22T06:45:32.526Z,98288.48
2018-08-22T06:51:16.962Z,98286.82
2018-08-22T06:53:49.232Z,98293.28
2018-08-22T06:56:20.900Z,98287.38
2018-08-22T06:58:52.190Z,98299.52
2018-08-22T07:01:24.785Z,98298.59
2018-08-22T07:04:03.133Z,98290.67
2018-08-22T07:06:33.116Z,98290.58
2018-08-22T07:09:10.457Z,98289.81
2018-08-22T07:11:40.255Z,98290.16
2018-08-22T07:14:10.219Z,98290.80
2018-08-22T07:16:41.236Z,98288.79
2018-08-22T07:22:12.481Z,98293.41
2018-08-22T07:24:42.813Z,98288.69
2018-08-22T07:27:14.066Z,98281.61
2018-08-22T07:29:44.924Z,98282.89
2018-08-22T07:32:15.807Z,98291.19
2018-08-22T07:34:47.667Z,98286.08
2018-08-22T07:37:19.872Z,98286.30
2018-08-22T07:39:49.650Z,98285.22
2018-08-22T07:42:19.562Z,98284.11
2018-08-22T07:44:49.802Z,98285.13
2018-08-22T07:47:19.731Z,98282.83
2018-08-22T07:49:50.117Z,98287.40
2018-08-22T07:52:20.569Z,98288.63
2018-08-22T07:54:50.415Z,98290.94
2018-08-22T07:57:31.845Z,98297.17
2018-08-22T08:00:02.887Z,98302.95
2018-08-22T08:02:32.611Z,98298.89
2018-08-22T08:05:03.404Z,98290.20
2018-08-22T08:07:34.016Z,98296.19
2018-08-22T08:10:04.458Z,98299.77
2018-08-22T08:12:39.634Z,98300.27
2018-08-22T08:15:13.541Z,98304.89
2018-08-22T08:17:47.116Z,98301.97
2018-08-22T08:20:16.893Z,98309.45
2018-08-22T08:22:49.589Z,98307.63
2018-08-22T08:25:25.076Z,98305.41
2018-08-22T08:27:55.157Z,98306.88
2018-08-22T08:30:27.835Z,98309.77
2018-08-22T08:32:58.247Z,98311.06
2018-08-22T08:35:29.810Z,98308.33
2018-08-22T08:40:57.591Z,98312.86
2018-08-22T08:46:22.365Z,98312.95
2018-08-22T08:48:52.475Z,98309.14
2018-08-22T08:51:22.149Z,98308.80
2018-08-22T08:53:51.746Z,98310.29
2018-08-22T08:56:25.206Z,98306.43
2018-08-22T08:58:54.839Z,98312.59
2018-08-22T09:01:24.441Z,98311.96
2018-08-22T09:03:54.717Z,98305.32
2018-08-22T09:06:29.534Z,98308.49
2018-08-22T09:08:59.277Z,98305.66
2018-08-22T09:11:29.424Z,98306.16
2018-08-22T09:13:59.389Z,98309.95
2018-08-22T09:16:28.929Z,98305.16
2018-08-22T09:18:59.671Z,98308.71
2018-08-22T09:21:30.651Z,98302.77
2018-08-22T09:24:00.496Z,98302.52
2018-08-22T09:26:31.071Z,98305.52
2018-08-22T09:29:01.811Z,98300.47
2018-08-22T09:31:47.592Z,98303.84
2018-08-22T09:34:17.718Z,98297.42
2018-08-22T09:36:48.562Z,98304.53
2018-08-22T09:39:25.256Z,98294.84
2018-08-22T09:41:55.081Z,98291.55
2018-08-22T09:48:24.456Z,98273.89
2018-08-22T09:50:54.034Z,98278.69
2018-08-22T09:53:36.491Z,98266.69
2018-08-22T09:56:06.626Z,98269.90
2018-08-22T09:58:36.418Z,98263.41
2018-08-22T10:03:56.598Z,98254.56
2018-08-22T10:06:45.941Z,98250.14
2018-08-22T10:12:22.381Z,98247.22
2018-08-22T10:17:56.866Z,98230.26
2018-08-22T10:20:26.686Z,98229.01
2018-08-22T10:22:57.569Z,98225.11
2018-08-22T10:25:27.310Z,98222.70
2018-08-22T10:28:02.886Z,98223.73
2018-08-22T10:30:41.341Z,98216.47
2018-08-22T10:33:11.275Z,98219.94
2018-08-22T10:35:41.283Z,98216.28
2018-08-22T10:38:12.773Z,98212.44
2018-08-22T10:40:42.846Z,98213.09
2018-08-22T10:43:14.705Z,98206.75
2018-08-22T10:45:44.515Z,98202.48
2018-08-22T10:48:14.234Z,98200.22
2018-08-22T10:50:44.016Z,98199.27
2018-08-22T10:53:13.581Z,98200.62
2018-08-22T10:55:43.193Z,98191.59
2018-08-22T10:58:17.637Z,98195.81
2018-08-22T11:00:47.158Z,98197.33
2018-08-22T11:03:17.733Z,98193.95
2018-08-22T11:05:47.369Z,98189.58
2018-08-22T11:08:17.185Z,98190.76
2018-08-22T11:10:46.870Z,98186.63
2018-08-22T11:13:16.894Z,98177.41
2018-08-22T11:15:47.031Z,98176.18
2018-08-22T11:18:18.165Z,98179.92
2018-08-22T11:20:48.726Z,98169.88
2018-08-22T11:23:31.110Z,98175.16
2018-08-22T11:26:16.860Z,98173.09
2018-08-22T11:28:57.458Z,98170.03
2018-08-22T11:31:37.841Z,98168.28
2018-08-22T11:34:18.762Z,98168.25
2018-08-22T11:37:12.355Z,98170.03
2018-08-22T11:39:45.131Z,98168.33
2018-08-22T11:42:15.420Z,98167.64
2018-08-22T11:44:45.079Z,98167.30
2018-08-22T11:47:14.802Z,98161.02
2018-08-22T11:49:44.602Z,98161.72
2018-08-22T11:52:14.201Z,98154.58
2018-08-22T11:54:45.802Z,98154.20
2018-08-22T11:57:15.677Z,98154.98
2018-08-22T11:59:45.328Z,98149.45
2018-08-22T12:02:33.960Z,98146.84
2018-08-22T12:05:03.707Z,98140.20
2018-08-22T12:07:33.233Z,98143.66
2018-08-22T12:10:03.202Z,98142.77
2018-08-22T12:12:32.754Z,98137.69
2018-08-22T12:15:02.371Z,98133.47
2018-08-22T12:17:32.220Z,98128.66
2018-08-22T12:20:02.209Z,98127.69
2018-08-22T12:22:31.741Z,98125.17
2018-08-22T12:25:02.443Z,98118.28
2018-08-22T12:27:33.298Z,98114.07
2018-08-22T12:30:04.412Z,98121.37
2018-08-22T12:32:37.695Z,98119.28
2018-08-22T12:35:07.938Z,98118.16
2018-08-22T12:37:39.327Z,98110.78
2018-08-22T12:40:10.519Z,98106.36
2018-08-22T12:42:42.374Z,98106.08
2018-08-22T12:45:12.340Z,98104.14
2018-08-22T12:47:42.983Z,98110.37
2018-08-22T12:50:13.059Z,98108.55
2018-08-22T12:52:43.981Z,98110.89
2018-08-22T12:55:14.420Z,98109.13
2018-08-22T12:57:45.023Z,98105.38
2018-08-22T13:00:14.602Z,98106.84
2018-08-22T13:02:44.277Z,98108.55
2018-08-22T13:05:13.897Z,98104.19
2018-08-22T13:07:44.068Z,98097.95
2018-08-22T13:10:13.789Z,98097.63
2018-08-22T13:12:44.537Z,98098.92
2018-08-22T13:15:15.086Z,98103.61
2018-08-22T13:17:49.450Z,98104.55
2018-08-22T13:20:19.478Z,98098.62
2018-08-22T13:22:49.216Z,98102.63
2018-08-22T13:25:19.953Z,98105.33
2018-08-22T13:27:49.522Z,98091.66
2018-08-22T13:30:19.114Z,98092.65
2018-08-22T13:32:49.604Z,98089.06
2018-08-22T13:35:19.511Z,98093.42
2018-08-22T13:37:50.142Z,98093.02
2018-08-22T13:40:20.467Z,98091.91
2018-08-22T13:42:50.625Z,98098.80
2018-08-22T13:45:22.548Z,98102.30
2018-08-22T13:47:52.284Z,98102.91
2018-08-22T13:50:21.980Z,98109.16
2018-08-22T13:52:52.000Z,98110.42
2018-08-22T13:57:55.126Z,98109.96
2018-08-22T14:00:24.709Z,98107.59
2018-08-22T14:02:55.134Z,98110.79
2018-08-22T14:05:25.245Z,98102.83
2018-08-22T14:07:55.111Z,98101.02
2018-08-22T14:10:24.767Z,98089.13
2018-08-22T14:12:54.376Z,98081.18
2018-08-22T14:15:23.938Z,98066.63
2018-08-22T14:17:55.781Z,98058.83
2018-08-22T14:20:25.498Z,98050.61
2018-08-22T14:22:56.562Z,98044.72
2018-08-22T14:25:26.119Z,98033.87
2018-08-22T14:27:55.726Z,98028.52
2018-08-22T14:30:25.872Z,98026.00
2018-08-22T14:32:55.690Z,98021.08
2018-08-22T14:35:25.248Z,98020.56
2018-08-22T14:37:54.886Z,98028.20
2018-08-22T14:40:24.554Z,98029.38
2018-08-22T14:42:54.386Z,98029.84
2018-08-22T14:45:24.763Z,98040.52
2018-08-22T14:47:55.811Z,98044.83
2018-08-22T14:50:25.860Z,98041.38
2018-08-22T14:52:55.366Z,98038.20
2018-08-22T14:55:24.923Z,98027.77
2018-08-22T14:57:54.716Z,98019.69
2018-08-22T15:00:24.577Z,98016.62
2018-08-22T15:02:54.772Z,98019.80
2018-08-22T15:05:33.198Z,98019.95
2018-08-22T15:08:03.655Z,98022.71
2018-08-22T15:10:33.558Z,98013.66
2018-08-22T15:13:03.787Z,98014.55
2018-08-22T15:15:33.254Z,98005.70
2018-08-22T15:18:03.470Z,98020.48
2018-08-22T15:20:33.440Z,98022.22
2018-08-22T15:23:04.544Z,98036.22
2018-08-22T15:25:40.632Z,98050.28
2018-08-22T15:28:14.965Z,98040.67
2018-08-22T15:30:46.562Z,98058.70
2018-08-22T15:33:16.136Z,98055.05
2018-08-22T15:35:45.586Z,98062.05
2018-08-22T15:38:25.989Z,97996.75
2018-08-22T15:40:55.887Z,98063.17
2018-08-22T15:43:26.073Z,98074.59
2018-08-22T15:45:55.853Z,98062.09
2018-08-22T15:48:25.482Z,98055.40
2018-08-22T15:50:55.298Z,98046.04
2018-08-22T15:53:24.889Z,98041.03
2018-08-22T15:55:54.609Z,98034.29
2018-08-22T15:58:37.617Z,98033.06
2018-08-22T16:01:07.401Z,98025.64
2018-08-22T16:06:33.177Z,98014.70
2018-08-22T16:11:59.692Z,98013.79
2018-08-22T16:14:31.748Z,98018.47
2018-08-22T16:17:01.732Z,98023.23
2018-08-22T16:19:33.291Z,98021.27
2018-08-22T16:22:03.346Z,98021.42
2018-08-22T16:24:34.817Z,98022.84
2018-08-22T16:27:05.698Z,98029.20
2018-08-22T16:29:36.253Z,98022.63
2018-08-22T16:32:07.659Z,98027.22
2018-08-22T16:34:39.457Z,98026.00
2018-08-22T16:37:13.439Z,98024.95
2018-08-22T16:39:48.690Z,98015.58
2018-08-22T16:42:24.178Z,98024.56
2018-08-22T16:44:55.879Z,98021.60
2018-08-22T16:47:33.701Z,98023.70
2018-08-22T16:50:08.170Z,98021.59
2018-08-22T16:52:39.239Z,98018.03
2018-08-22T16:55:22.183Z,98018.97
2018-08-22T16:57:54.558Z,98019.75
2018-08-22T17:00:30.874Z,98019.93
2018-08-22T17:03:03.661Z,98005.77
2018-08-22T17:05:34.624Z,98005.71
2018-08-22T17:08:12.435Z,97994.61
2018-08-22T17:10:55.965Z,98000.89
2018-08-22T17:13:46.895Z,98000.36
2018-08-22T17:16:28.074Z,97997.08
2018-08-22T17:21:39.056Z,97991.22
2018-08-22T17:24:10.331Z,97995.08
2018-08-22T17:26:43.625Z,97993.68
2018-08-22T17:29:24.878Z,97987.66
2018-08-22T17:35:08.149Z,97990.72
2018-08-22T17:40:31.570Z,98003.86
2018-08-22T17:43:13.851Z,97999.93
2018-08-22T17:45:49.246Z,98002.06
2018-08-22T17:48:33.314Z,98002.23
2018-08-22T17:51:15.131Z,98003.74
2018-08-22T17:54:00.394Z,98006.30
2018-08-22T17:56:32.162Z,98004.23
2018-08-22T18:01:45.380Z,98002.33
2018-08-22T18:04:17.721Z,98002.20
2018-08-22T18:06:55.637Z,98003.56
2018-08-22T18:09:30.286Z,98000.74
2018-08-22T18:12:09.731Z,98002.92
2018-08-22T18:14:45.798Z,98006.62
2018-08-22T18:17:16.408Z,98008.93
2018-08-22T18:19:49.718Z,98011.40
2018-08-22T18:22:26.749Z,98009.02
2018-08-22T18:25:00.506Z,98016.36
2018-08-22T18:27:35.380Z,98013.76
2018-08-22T18:30:09.339Z,98019.59
2018-08-22T18:32:49.137Z,98020.10
2018-08-22T18:35:22.362Z,98022.67
2018-08-22T18:37:56.455Z,98028.32
2018-08-22T18:40:33.517Z,98030.61
2018-08-22T18:43:07.006Z,98036.86
2018-08-22T18:48:34.406Z,98035.35
2018-08-22T18:51:07.583Z,98038.58
2018-08-22T18:53:51.436Z,98042.80
2018-08-22T18:56:30.264Z,98050.01
2018-08-22T19:02:00.347Z,98049.19
2018-08-22T19:07:56.182Z,98054.96
2018-08-22T19:14:17.079Z,98052.39
2018-08-22T19:16:55.728Z,98049.80
2018-08-22T19:19:28.626Z,98054.36
2018-08-22T19:21:59.595Z,98053.38
2018-08-22T19:27:13.736Z,98056.45
2018-08-22T19:32:39.879Z,98053.31
2018-08-22T19:35:26.614Z,98053.47
2018-08-22T19:38:07.865Z,98062.21
2018-08-22T19:50:00.618Z,98057.98
2018-08-22T20:01:14.960Z,98066.52
2018-08-22T20:14:20.307Z,98067.33
2018-08-22T20:20:28.831Z,98068.19
2018-08-22T20:28:53.051Z,98064.25
2018-08-22T20:31:33.967Z,98065.54
2018-08-22T20:34:15.613Z,98064.88
2018-08-22T20:37:26.857Z,98062.56
2018-08-22T20:40:04.951Z,98058.73
2018-08-22T20:42:35.965Z,98059.56
2018-08-22T20:48:04.738Z,98062.92
2018-08-22T20:50:36.818Z,98062.27
2018-08-22T20:53:17.952Z,98066.59
2018-08-22T20:58:34.958Z,98063.59
2018-08-22T21:01:20.062Z,98063.92
2018-08-22T21:06:55.252Z,98051.55
2018-08-22T21:09:26.982Z,98050.90
2018-08-22T21:11:59.924Z,98054.55
2018-08-22T21:14:37.436Z,98053.54
2018-08-22T21:17:14.202Z,98052.55
2018-08-22T21:19:45.885Z,98061.19
2018-08-22T21:22:31.713Z,98058.52
2018-08-22T21:25:27.376Z,98054.34
2018-08-22T21:30:58.604Z,98050.84
2018-08-22T21:33:36.126Z,98059.17
2018-08-22T21:39:25.504Z,98053.80
2018-08-22T21:42:11.737Z,98052.77
2018-08-22T21:45:02.135Z,98052.09
2018-08-22T21:47:43.297Z,98054.25
2018-08-22T21:53:29.625Z,98052.73
2018-08-22T21:56:10.917Z,98048.73
2018-08-22T22:07:39.412Z,98048.39
2018-08-22T22:13:26.099Z,98052.30
2018-08-22T22:16:12.325Z,98048.14
2018-08-22T22:18:54.433Z,98052.41
2018-08-22T22:21:42.674Z,98049.27
2018-08-22T22:32:47.667Z,98047.20
2018-08-22T22:35:46.699Z,98045.88
2018-08-22T22:38:31.838Z,98053.01
2018-08-22T22:41:05.330Z,98045.52
2018-08-22T22:43:53.290Z,98047.16
2018-08-22T22:59:07.900Z,98041.95
2018-08-22T23:01:41.540Z,98042.05
2018-08-22T23:04:14.880Z,98038.95
2018-08-22T23:16:53.343Z,98042.62
2018-08-22T23:19:41.180Z,98041.11
2018-08-22T23:22:38.875Z,98039.12
2018-08-22T23:25:13.318Z,98033.15
2018-08-22T23:27:48.912Z,98032.13
2018-08-22T23:33:07.559Z,98041.34
2018-08-22T23:35:37.654Z,98039.34
2018-08-22T23:38:23.046Z,98037.32
2018-08-22T23:40:56.621Z,98035.98
2018-08-22T23:43:28.630Z,98035.98
2018-08-22T23:46:02.246Z,98036.44
2018-08-22T23:48:38.205Z,98035.90
2018-08-22T23:51:11.429Z,98033.25
2018-08-22T23:53:49.068Z,98031.43
2018-08-22T23:56:31.223Z,98029.47
